MUC | München Airways

 METAR UND TAF INFORMATION

METAR FOR TFFF
ADDS - METARS form results

(0513 UTC 23 March 2019)
Data provider http://aviationweather.gov/metar/data/
 
METAR text: TFFF 230500Z AUTO 09010KT 9999 FEW028 BKN064 25/22 Q1016 TEMPO 4000 SHRA SCT020TCU
Conditions at: TFFF (LE LAMENTIN/MART, MQ) observed 0500 UTC 23 March 2019
Temperature: 25.0°C (77°F)
Dewpoint: 22.0°C (72°F) [RH = 83%]
Pressure (altimeter): 30.00 inches Hg (1016.0 mb)
Winds: from the E (90 degrees) at 12 MPH (10 knots; 5.1 m/s)
Visibility: 6 or more miles (10+ km)
Ceiling: 6400 feet AGL
Clouds: few clouds at 2800 feet AGL
broken clouds at 6400 feet AGL
Weather: no significant weather observed at this time

METAR text: TFFF 230430Z AUTO 11010KT 9999 FEW038 SCT062 25/21 Q1016 TEMPO 4000 SHRA SCT020TCU
Conditions at: TFFF (LE LAMENTIN/MART, MQ) observed 0430 UTC 23 March 2019
Temperature: 25.0°C (77°F)
Dewpoint: 21.0°C (70°F) [RH = 79%]
Pressure (altimeter): 30.00 inches Hg (1016.0 mb)
Winds: from the ESE (110 degrees) at 12 MPH (10 knots; 5.1 m/s)
Visibility: 6 or more miles (10+ km)
Ceiling: at least 12,000 feet AGL
Clouds: few clouds at 3800 feet AGL
scattered clouds at 6200 feet AGL
Weather: no significant weather observed at this time

Forecast for: TFFF (LE LAMENTIN/MART, MQ)
Text: TAF TFFF 222300Z 2300/2324 10010KT 9999 SCT025
Forecast period: 0000 UTC 23 March 2019 to 0000 UTC 24 March 2019
Forecast type: FROM: standard forecast or significant change
Winds: from the E (100 degrees) at 12 MPH (10 knots; 5.1 m/s)
Visibility: 6 or more miles 10+ km)
Ceiling: at least 12,000 feet AGL
Clouds: scattered clouds at 2500 feet AGL
Weather: no significant weather forecast for this period
Text: PROB30
Forecast period: 0600 to 1200 UTC 23 March 2019
Forecast type: TEMPORARY: The following changes expected for less than half the time period
Visibility: 2.49 miles (4.01 km)
Ceiling: at least 12,000 feet AGL
Clouds: scattered clouds at 2000 feet AGL
Weather: SHRA  (rain showers)

 FLUGHAFENKARTE

 RUNWAY INFORMATION
Runway 10 Runway length 10826 ft Runway width 147 ft
Runway elevation 10 ft Runway displaced threshold 0 ft Runway heading 80
Runway 28 Runway length 10826 ft Runway width 147 ft
Runway elevation 14 ft Runway displaced threshold 984 ft Runway heading 260

 AIRPORT FREQUENCIES
Type APP Name FORT DE FR Frequency 121 MHZ
Type ATIS Name ATIS Frequency 127.85 MHZ
Type GND Name GND Frequency 121.9 MHZ
Type TWR Name FORT DE FR Frequency 118.5 MHZ

 AIRPORT NEAR NAVIGATION AIDS
Type VOR-DME Name Fort De France Frequency 113300 KHZ
Type NDB Name Fort De France Frequency 329 KHZ